sensor_id;sensor_type;location;lat;lon;timestamp;temperature;humidity
802;DHT22;383;48.766;9.270;2023-06-26T00:01:28;20.50;67.60
802;DHT22;383;48.766;9.270;2023-06-26T00:03:56;20.50;67.90
802;DHT22;383;48.766;9.270;2023-06-26T00:06:24;20.50;68.00
802;DHT22;383;48.766;9.270;2023-06-26T00:08:51;20.40;68.40
802;DHT22;383;48.766;9.270;2023-06-26T00:11:18;20.40;68.80
802;DHT22;383;48.766;9.270;2023-06-26T00:13:45;20.30;68.80
802;DHT22;383;48.766;9.270;2023-06-26T00:16:12;20.30;69.10
802;DHT22;383;48.766;9.270;2023-06-26T00:18:38;20.30;69.30
802;DHT22;383;48.766;9.270;2023-06-26T00:21:05;20.20;69.70
802;DHT22;383;48.766;9.270;2023-06-26T00:23:33;20.20;69.70
802;DHT22;383;48.766;9.270;2023-06-26T00:26:02;20.20;69.60
802;DHT22;383;48.766;9.270;2023-06-26T00:28:29;20.20;69.60
802;DHT22;383;48.766;9.270;2023-06-26T00:35:49;20.10;69.90
802;DHT22;383;48.766;9.270;2023-06-26T00:38:16;20.10;70.10
802;DHT22;383;48.766;9.270;2023-06-26T00:40:44;20.10;70.30
802;DHT22;383;48.766;9.270;2023-06-26T00:43:11;20.10;70.10
802;DHT22;383;48.766;9.270;2023-06-26T00:45:38;20.00;70.10
802;DHT22;383;48.766;9.270;2023-06-26T00:48:05;20.00;70.30
802;DHT22;383;48.766;9.270;2023-06-26T00:50:32;20.00;70.30
802;DHT22;383;48.766;9.270;2023-06-26T00:52:59;19.90;70.70
802;DHT22;383;48.766;9.270;2023-06-26T00:55:26;19.90;70.80
802;DHT22;383;48.766;9.270;2023-06-26T00:57:55;19.80;71.20
802;DHT22;383;48.766;9.270;2023-06-26T01:00:22;19.80;71.90
802;DHT22;383;48.766;9.270;2023-06-26T01:02:49;19.70;71.70
802;DHT22;383;48.766;9.270;2023-06-26T01:05:15;19.70;71.70
802;DHT22;383;48.766;9.270;2023-06-26T01:07:46;19.70;71.90
802;DHT22;383;48.766;9.270;2023-06-26T01:10:14;19.70;72.10
802;DHT22;383;48.766;9.270;2023-06-26T01:12:41;19.70;72.10
802;DHT22;383;48.766;9.270;2023-06-26T01:15:10;19.70;72.30
802;DHT22;383;48.766;9.270;2023-06-26T01:17:37;19.70;72.10
802;DHT22;383;48.766;9.270;2023-06-26T01:20:06;19.70;72.00
802;DHT22;383;48.766;9.270;2023-06-26T01:22:37;19.70;72.10
802;DHT22;383;48.766;9.270;2023-06-26T01:25:15;19.60;72.50
802;DHT22;383;48.766;9.270;2023-06-26T01:27:46;19.60;72.60
802;DHT22;383;48.766;9.270;2023-06-26T01:30:16;19.50;72.60
802;DHT22;383;48.766;9.270;2023-06-26T01:32:43;19.50;72.60
802;DHT22;383;48.766;9.270;2023-06-26T01:35:11;19.50;72.90
802;DHT22;383;48.766;9.270;2023-06-26T01:37:38;19.50;73.20
802;DHT22;383;48.766;9.270;2023-06-26T01:40:05;19.40;73.70
802;DHT22;383;48.766;9.270;2023-06-26T01:42:32;19.40;73.80
802;DHT22;383;48.766;9.270;2023-06-26T01:45:04;19.40;73.40
802;DHT22;383;48.766;9.270;2023-06-26T01:47:34;19.40;73.70
802;DHT22;383;48.766;9.270;2023-06-26T01:50:06;19.40;73.30
802;DHT22;383;48.766;9.270;2023-06-26T01:52:38;19.40;73.00
802;DHT22;383;48.766;9.270;2023-06-26T01:55:12;19.40;73.70
802;DHT22;383;48.766;9.270;2023-06-26T01:57:42;19.30;73.40
802;DHT22;383;48.766;9.270;2023-06-26T02:00:11;19.30;73.40
802;DHT22;383;48.766;9.270;2023-06-26T02:02:40;19.30;73.30
802;DHT22;383;48.766;9.270;2023-06-26T02:05:07;19.30;73.20
802;DHT22;383;48.766;9.270;2023-06-26T02:07:34;19.30;73.60
802;DHT22;383;48.766;9.270;2023-06-26T02:10:01;19.30;73.40
802;DHT22;383;48.766;9.270;2023-06-26T02:12:28;19.40;73.40
802;DHT22;383;48.766;9.270;2023-06-26T02:14:55;19.40;73.20
802;DHT22;383;48.766;9.270;2023-06-26T02:17:23;19.40;73.20
802;DHT22;383;48.766;9.270;2023-06-26T02:19:49;19.30;73.70
802;DHT22;383;48.766;9.270;2023-06-26T02:22:16;19.30;74.10
802;DHT22;383;48.766;9.270;2023-06-26T02:24:43;19.30;74.60
802;DHT22;383;48.766;9.270;2023-06-26T02:27:10;19.20;74.40
802;DHT22;383;48.766;9.270;2023-06-26T02:29:39;19.20;74.60
802;DHT22;383;48.766;9.270;2023-06-26T02:32:06;19.20;74.60
802;DHT22;383;48.766;9.270;2023-06-26T02:34:35;19.20;75.00
802;DHT22;383;48.766;9.270;2023-06-26T02:37:01;19.10;75.20
802;DHT22;383;48.766;9.270;2023-06-26T02:39:28;19.10;75.40
802;DHT22;383;48.766;9.270;2023-06-26T02:41:55;19.10;75.60
802;DHT22;383;48.766;9.270;2023-06-26T02:44:21;19.10;75.00
802;DHT22;383;48.766;9.270;2023-06-26T02:46:48;19.00;75.00
802;DHT22;383;48.766;9.270;2023-06-26T02:49:15;19.00;75.20
802;DHT22;383;48.766;9.270;2023-06-26T02:51:43;18.90;75.40
802;DHT22;383;48.766;9.270;2023-06-26T02:54:09;18.90;76.00
802;DHT22;383;48.766;9.270;2023-06-26T02:56:36;18.90;76.00
802;DHT22;383;48.766;9.270;2023-06-26T02:59:03;18.80;76.30
802;DHT22;383;48.766;9.270;2023-06-26T03:01:29;18.80;76.30
802;DHT22;383;48.766;9.270;2023-06-26T03:03:56;18.80;76.10
802;DHT22;383;48.766;9.270;2023-06-26T03:06:23;18.80;76.00
802;DHT22;383;48.766;9.270;2023-06-26T03:08:51;18.80;76.50
802;DHT22;383;48.766;9.270;2023-06-26T03:11:17;18.70;77.00
802;DHT22;383;48.766;9.270;2023-06-26T03:13:44;18.70;76.60
802;DHT22;383;48.766;9.270;2023-06-26T03:16:11;18.70;76.70
802;DHT22;383;48.766;9.270;2023-06-26T03:18:37;18.60;76.70
802;DHT22;383;48.766;9.270;2023-06-26T03:21:04;18.60;77.30
802;DHT22;383;48.766;9.270;2023-06-26T03:23:31;18.70;76.90
802;DHT22;383;48.766;9.270;2023-06-26T03:25:59;18.60;76.90
802;DHT22;383;48.766;9.270;2023-06-26T03:28:26;18.70;76.70
802;DHT22;383;48.766;9.270;2023-06-26T03:30:52;18.70;76.70
802;DHT22;383;48.766;9.270;2023-06-26T03:33:19;18.60;77.90
802;DHT22;383;48.766;9.270;2023-06-26T03:35:46;18.60;77.90
802;DHT22;383;48.766;9.270;2023-06-26T03:38:13;18.60;77.90
802;DHT22;383;48.766;9.270;2023-06-26T03:40:39;18.60;77.50
802;DHT22;383;48.766;9.270;2023-06-26T03:43:07;18.60;77.40
802;DHT22;383;48.766;9.270;2023-06-26T03:45:34;18.60;77.50
802;DHT22;383;48.766;9.270;2023-06-26T03:48:01;18.60;77.30
802;DHT22;383;48.766;9.270;2023-06-26T03:50:27;18.60;77.30
802;DHT22;383;48.766;9.270;2023-06-26T03:52:54;18.60;77.10
802;DHT22;383;48.766;9.270;2023-06-26T03:55:21;18.60;77.40
802;DHT22;383;48.766;9.270;2023-06-26T03:57:49;18.60;77.70
802;DHT22;383;48.766;9.270;2023-06-26T04:00:17;18.70;77.80
802;DHT22;383;48.766;9.270;2023-06-26T04:02:44;18.70;77.80
802;DHT22;383;48.766;9.270;2023-06-26T04:05:11;18.70;77.40
802;DHT22;383;48.766;9.270;2023-06-26T04:07:38;18.70;77.40
802;DHT22;383;48.766;9.270;2023-06-26T04:10:06;18.80;77.30
802;DHT22;383;48.766;9.270;2023-06-26T04:12:32;18.90;77.10
802;DHT22;383;48.766;9.270;2023-06-26T04:14:59;18.90;77.30
802;DHT22;383;48.766;9.270;2023-06-26T04:17:27;18.90;77.30
802;DHT22;383;48.766;9.270;2023-06-26T04:19:54;19.00;76.90
802;DHT22;383;48.766;9.270;2023-06-26T04:22:20;19.00;76.90
802;DHT22;383;48.766;9.270;2023-06-26T04:24:47;19.00;77.10
802;DHT22;383;48.766;9.270;2023-06-26T04:27:14;19.10;76.50
802;DHT22;383;48.766;9.270;2023-06-26T04:29:42;19.20;76.50
802;DHT22;383;48.766;9.270;2023-06-26T04:32:08;19.20;76.50
802;DHT22;383;48.766;9.270;2023-06-26T04:34:36;19.30;76.50
802;DHT22;383;48.766;9.270;2023-06-26T04:37:06;19.30;76.00
802;DHT22;383;48.766;9.270;2023-06-26T04:39:35;19.30;75.70
802;DHT22;383;48.766;9.270;2023-06-26T04:42:02;19.40;76.30
802;DHT22;383;48.766;9.270;2023-06-26T04:44:29;19.40;76.70
802;DHT22;383;48.766;9.270;2023-06-26T04:46:55;19.40;76.60
802;DHT22;383;48.766;9.270;2023-06-26T04:49:22;19.40;76.50
802;DHT22;383;48.766;9.270;2023-06-26T04:51:50;19.40;76.60
802;DHT22;383;48.766;9.270;2023-06-26T04:54:17;19.50;76.50
802;DHT22;383;48.766;9.270;2023-06-26T04:56:43;19.60;76.30
802;DHT22;383;48.766;9.270;2023-06-26T04:59:13;19.70;75.30
802;DHT22;383;48.766;9.270;2023-06-26T05:01:40;19.70;75.30
802;DHT22;383;48.766;9.270;2023-06-26T05:04:07;19.80;75.00
802;DHT22;383;48.766;9.270;2023-06-26T05:06:34;19.80;75.40
802;DHT22;383;48.766;9.270;2023-06-26T05:09:02;19.90;76.00
802;DHT22;383;48.766;9.270;2023-06-26T05:11:28;19.90;76.60
802;DHT22;383;48.766;9.270;2023-06-26T05:13:55;19.90;76.60
802;DHT22;383;48.766;9.270;2023-06-26T05:16:22;20.00;76.10
802;DHT22;383;48.766;9.270;2023-06-26T05:18:48;20.00;76.00
802;DHT22;383;48.766;9.270;2023-06-26T05:21:16;20.10;75.40
802;DHT22;383;48.766;9.270;2023-06-26T05:23:43;20.10;75.40
802;DHT22;383;48.766;9.270;2023-06-26T05:26:12;20.20;74.80
802;DHT22;383;48.766;9.270;2023-06-26T05:28:40;20.30;74.60
802;DHT22;383;48.766;9.270;2023-06-26T05:31:07;20.40;74.00
802;DHT22;383;48.766;9.270;2023-06-26T05:33:35;20.60;73.20
802;DHT22;383;48.766;9.270;2023-06-26T05:36:04;20.80;73.20
802;DHT22;383;48.766;9.270;2023-06-26T05:38:31;20.90;72.80
802;DHT22;383;48.766;9.270;2023-06-26T05:40:59;21.10;71.30
802;DHT22;383;48.766;9.270;2023-06-26T05:43:27;21.20;72.60
802;DHT22;383;48.766;9.270;2023-06-26T05:45:53;21.30;72.60
802;DHT22;383;48.766;9.270;2023-06-26T05:48:20;21.40;71.70
802;DHT22;383;48.766;9.270;2023-06-26T05:50:47;21.60;70.50
802;DHT22;383;48.766;9.270;2023-06-26T05:53:15;21.70;70.40
802;DHT22;383;48.766;9.270;2023-06-26T05:55:42;21.90;68.90
802;DHT22;383;48.766;9.270;2023-06-26T05:58:10;22.00;68.40
802;DHT22;383;48.766;9.270;2023-06-26T06:00:39;22.10;69.10
802;DHT22;383;48.766;9.270;2023-06-26T06:03:06;22.20;69.10
802;DHT22;383;48.766;9.270;2023-06-26T06:05:34;22.30;69.70
802;DHT22;383;48.766;9.270;2023-06-26T06:08:01;22.40;68.40
802;DHT22;383;48.766;9.270;2023-06-26T06:10:27;22.60;67.20
802;DHT22;383;48.766;9.270;2023-06-26T06:12:54;22.60;67.40
802;DHT22;383;48.766;9.270;2023-06-26T06:15:21;22.70;67.60
802;DHT22;383;48.766;9.270;2023-06-26T06:17:49;22.70;67.90
802;DHT22;383;48.766;9.270;2023-06-26T06:20:16;23.00;66.40
802;DHT22;383;48.766;9.270;2023-06-26T06:22:45;23.00;66.40
802;DHT22;383;48.766;9.270;2023-06-26T06:25:11;23.10;66.30
802;DHT22;383;48.766;9.270;2023-06-26T06:27:38;23.30;65.60
802;DHT22;383;48.766;9.270;2023-06-26T06:30:06;23.40;65.20
802;DHT22;383;48.766;9.270;2023-06-26T06:32:33;23.50;64.10
802;DHT22;383;48.766;9.270;2023-06-26T06:35:01;23.60;64.60
802;DHT22;383;48.766;9.270;2023-06-26T06:37:35;23.70;65.00
802;DHT22;383;48.766;9.270;2023-06-26T06:40:02;23.80;64.10
802;DHT22;383;48.766;9.270;2023-06-26T06:42:29;24.00;63.80
802;DHT22;383;48.766;9.270;2023-06-26T06:44:56;24.10;63.40
802;DHT22;383;48.766;9.270;2023-06-26T06:47:23;24.10;63.40
802;DHT22;383;48.766;9.270;2023-06-26T06:52:18;24.40;63.40
802;DHT22;383;48.766;9.270;2023-06-26T06:54:52;24.60;62.50
802;DHT22;383;48.766;9.270;2023-06-26T06:57:22;24.70;62.20
802;DHT22;383;48.766;9.270;2023-06-26T06:59:49;24.70;62.20
802;DHT22;383;48.766;9.270;2023-06-26T07:02:17;24.90;62.60
802;DHT22;383;48.766;9.270;2023-06-26T07:04:44;25.00;61.90
802;DHT22;383;48.766;9.270;2023-06-26T07:07:12;25.00;62.10
802;DHT22;383;48.766;9.270;2023-06-26T07:09:41;25.40;60.50
802;DHT22;383;48.766;9.270;2023-06-26T07:12:08;25.50;60.40
802;DHT22;383;48.766;9.270;2023-06-26T07:14:34;25.60;60.10
802;DHT22;383;48.766;9.270;2023-06-26T07:17:01;25.70;60.10
802;DHT22;383;48.766;9.270;2023-06-26T07:19:28;25.90;59.30
802;DHT22;383;48.766;9.270;2023-06-26T07:21:54;25.90;59.30
802;DHT22;383;48.766;9.270;2023-06-26T07:31:44;26.70;56.50
802;DHT22;383;48.766;9.270;2023-06-26T07:34:11;26.80;57.20
802;DHT22;383;48.766;9.270;2023-06-26T07:36:38;26.90;57.40
802;DHT22;383;48.766;9.270;2023-06-26T07:39:04;27.10;57.50
802;DHT22;383;48.766;9.270;2023-06-26T07:41:31;27.30;56.00
802;DHT22;383;48.766;9.270;2023-06-26T07:43:59;27.30;56.00
802;DHT22;383;48.766;9.270;2023-06-26T07:46:26;27.60;56.40
802;DHT22;383;48.766;9.270;2023-06-26T07:48:53;27.80;54.50
802;DHT22;383;48.766;9.270;2023-06-26T07:51:20;28.00;54.30
802;DHT22;383;48.766;9.270;2023-06-26T07:53:46;28.00;52.80
802;DHT22;383;48.766;9.270;2023-06-26T07:56:13;28.10;53.10
802;DHT22;383;48.766;9.270;2023-06-26T07:58:40;28.20;52.50
802;DHT22;383;48.766;9.270;2023-06-26T08:01:08;28.40;52.00
802;DHT22;383;48.766;9.270;2023-06-26T08:03:35;28.40;52.40
802;DHT22;383;48.766;9.270;2023-06-26T08:10:56;29.00;50.00
802;DHT22;383;48.766;9.270;2023-06-26T08:15:50;29.30;49.20
802;DHT22;383;48.766;9.270;2023-06-26T08:18:19;29.30;48.60
802;DHT22;383;48.766;9.270;2023-06-26T08:20:45;29.40;48.20
802;DHT22;383;48.766;9.270;2023-06-26T08:23:12;29.50;47.90
802;DHT22;383;48.766;9.270;2023-06-26T08:25:39;29.70;47.90
802;DHT22;383;48.766;9.270;2023-06-26T08:35:28;30.40;46.10
802;DHT22;383;48.766;9.270;2023-06-26T08:37:55;30.40;45.70
802;DHT22;383;48.766;9.270;2023-06-26T08:40:21;30.50;46.70
802;DHT22;383;48.766;9.270;2023-06-26T08:42:48;30.50;46.70
802;DHT22;383;48.766;9.270;2023-06-26T08:45:18;30.70;46.30
802;DHT22;383;48.766;9.270;2023-06-26T08:47:46;30.90;45.70
802;DHT22;383;48.766;9.270;2023-06-26T08:50:16;31.00;44.10
802;DHT22;383;48.766;9.270;2023-06-26T08:52:50;30.90;44.70
802;DHT22;383;48.766;9.270;2023-06-26T08:55:20;31.00;45.20
802;DHT22;383;48.766;9.270;2023-06-26T08:57:50;31.20;44.00
802;DHT22;383;48.766;9.270;2023-06-26T09:00:17;31.30;44.60
802;DHT22;383;48.766;9.270;2023-06-26T09:02:45;31.30;44.60
802;DHT22;383;48.766;9.270;2023-06-26T09:05:12;31.50;44.60
802;DHT22;383;48.766;9.270;2023-06-26T09:07:38;31.50;44.80
802;DHT22;383;48.766;9.270;2023-06-26T09:10:08;31.60;44.30
802;DHT22;383;48.766;9.270;2023-06-26T09:12:35;31.70;43.50
802;DHT22;383;48.766;9.270;2023-06-26T09:15:04;31.70;43.80
802;DHT22;383;48.766;9.270;2023-06-26T09:17:38;31.80;43.30
802;DHT22;383;48.766;9.270;2023-06-26T09:20:06;31.80;43.30
802;DHT22;383;48.766;9.270;2023-06-26T09:22:37;32.00;43.60
802;DHT22;383;48.766;9.270;2023-06-26T09:25:05;32.00;43.00
802;DHT22;383;48.766;9.270;2023-06-26T09:27:34;32.10;42.70
802;DHT22;383;48.766;9.270;2023-06-26T09:30:01;32.40;43.20
802;DHT22;383;48.766;9.270;2023-06-26T09:32:29;32.40;43.20
802;DHT22;383;48.766;9.270;2023-06-26T09:34:56;32.50;43.10
802;DHT22;383;48.766;9.270;2023-06-26T09:37:23;32.50;43.30
802;DHT22;383;48.766;9.270;2023-06-26T09:39:50;32.70;41.90
802;DHT22;383;48.766;9.270;2023-06-26T09:42:17;32.70;41.90
802;DHT22;383;48.766;9.270;2023-06-26T09:44:47;33.30;41.00
802;DHT22;383;48.766;9.270;2023-06-26T09:47:16;33.50;41.50
802;DHT22;383;48.766;9.270;2023-06-26T09:49:43;33.60;40.90
802;DHT22;383;48.766;9.270;2023-06-26T09:52:13;33.70;40.40
802;DHT22;383;48.766;9.270;2023-06-26T09:54:42;33.70;40.50
802;DHT22;383;48.766;9.270;2023-06-26T09:57:11;33.70;40.40
802;DHT22;383;48.766;9.270;2023-06-26T09:59:39;33.50;40.60
802;DHT22;383;48.766;9.270;2023-06-26T10:02:08;33.40;40.10
802;DHT22;383;48.766;9.270;2023-06-26T10:04:36;33.50;40.10
802;DHT22;383;48.766;9.270;2023-06-26T10:07:05;33.40;40.10
802;DHT22;383;48.766;9.270;2023-06-26T10:09:33;33.20;41.00
802;DHT22;383;48.766;9.270;2023-06-26T10:12:03;33.00;40.90
802;DHT22;383;48.766;9.270;2023-06-26T10:14:35;32.80;41.50
802;DHT22;383;48.766;9.270;2023-06-26T10:17:04;32.80;42.60
802;DHT22;383;48.766;9.270;2023-06-26T10:19:35;32.70;42.20
802;DHT22;383;48.766;9.270;2023-06-26T10:22:03;32.60;42.50
802;DHT22;383;48.766;9.270;2023-06-26T10:24:33;32.40;42.80
802;DHT22;383;48.766;9.270;2023-06-26T10:27:04;32.40;43.30
802;DHT22;383;48.766;9.270;2023-06-26T10:29:33;32.30;44.30
802;DHT22;383;48.766;9.270;2023-06-26T10:32:02;32.20;44.10
802;DHT22;383;48.766;9.270;2023-06-26T10:34:31;32.20;43.60
802;DHT22;383;48.766;9.270;2023-06-26T10:37:05;32.20;43.70
802;DHT22;383;48.766;9.270;2023-06-26T10:39:46;32.30;44.00
802;DHT22;383;48.766;9.270;2023-06-26T10:44:42;32.40;44.60
802;DHT22;383;48.766;9.270;2023-06-26T10:47:10;32.40;45.30
802;DHT22;383;48.766;9.270;2023-06-26T10:49:37;32.30;45.30
802;DHT22;383;48.766;9.270;2023-06-26T10:52:07;32.30;45.30
802;DHT22;383;48.766;9.270;2023-06-26T10:54:34;32.30;45.30
802;DHT22;383;48.766;9.270;2023-06-26T10:57:02;32.10;45.70
802;DHT22;383;48.766;9.270;2023-06-26T10:59:31;32.00;45.90
802;DHT22;383;48.766;9.270;2023-06-26T11:01:59;31.90;44.70
802;DHT22;383;48.766;9.270;2023-06-26T11:04:37;31.70;45.00
802;DHT22;383;48.766;9.270;2023-06-26T11:07:20;31.50;44.20
802;DHT22;383;48.766;9.270;2023-06-26T11:10:00;31.50;44.30
802;DHT22;383;48.766;9.270;2023-06-26T11:12:38;31.60;44.70
802;DHT22;383;48.766;9.270;2023-06-26T11:15:08;31.80;44.70
802;DHT22;383;48.766;9.270;2023-06-26T11:17:35;32.00;45.10
802;DHT22;383;48.766;9.270;2023-06-26T11:20:03;32.10;44.50
802;DHT22;383;48.766;9.270;2023-06-26T11:22:35;32.20;44.00
802;DHT22;383;48.766;9.270;2023-06-26T11:25:03;32.20;43.80
802;DHT22;383;48.766;9.270;2023-06-26T11:27:31;32.30;44.00
802;DHT22;383;48.766;9.270;2023-06-26T11:29:58;32.40;44.00
802;DHT22;383;48.766;9.270;2023-06-26T11:32:26;32.40;44.30
802;DHT22;383;48.766;9.270;2023-06-26T11:37:21;32.20;44.30
802;DHT22;383;48.766;9.270;2023-06-26T11:39:49;32.20;44.50
802;DHT22;383;48.766;9.270;2023-06-26T11:42:16;32.30;43.20
802;DHT22;383;48.766;9.270;2023-06-26T11:44:47;32.50;43.30
802;DHT22;383;48.766;9.270;2023-06-26T11:49:42;32.50;44.30
802;DHT22;383;48.766;9.270;2023-06-26T11:57:05;32.50;44.10
802;DHT22;383;48.766;9.270;2023-06-26T11:59:36;32.50;44.30
802;DHT22;383;48.766;9.270;2023-06-26T12:02:07;32.30;44.70
802;DHT22;383;48.766;9.270;2023-06-26T12:04:36;32.20;44.60
802;DHT22;383;48.766;9.270;2023-06-26T12:07:05;31.80;45.50
802;DHT22;383;48.766;9.270;2023-06-26T12:09:37;32.00;45.60
802;DHT22;383;48.766;9.270;2023-06-26T12:12:06;32.00;45.60
802;DHT22;383;48.766;9.270;2023-06-26T12:14:34;32.00;46.90
802;DHT22;383;48.766;9.270;2023-06-26T12:17:05;31.90;47.80
802;DHT22;383;48.766;9.270;2023-06-26T12:19:34;32.20;48.10
802;DHT22;383;48.766;9.270;2023-06-26T12:22:06;32.50;47.60
802;DHT22;383;48.766;9.270;2023-06-26T12:24:36;32.80;47.20
802;DHT22;383;48.766;9.270;2023-06-26T12:27:07;32.90;46.60
802;DHT22;383;48.766;9.270;2023-06-26T12:29:37;32.90;46.70
802;DHT22;383;48.766;9.270;2023-06-26T12:32:08;32.70;47.20
802;DHT22;383;48.766;9.270;2023-06-26T12:34:37;32.80;47.40
802;DHT22;383;48.766;9.270;2023-06-26T12:37:05;33.00;47.30
802;DHT22;383;48.766;9.270;2023-06-26T12:39:46;33.20;47.40
802;DHT22;383;48.766;9.270;2023-06-26T12:42:14;33.30;46.10
802;DHT22;383;48.766;9.270;2023-06-26T12:44:43;33.00;46.70
802;DHT22;383;48.766;9.270;2023-06-26T12:47:10;33.00;46.70
802;DHT22;383;48.766;9.270;2023-06-26T12:49:41;33.10;46.40
802;DHT22;383;48.766;9.270;2023-06-26T12:52:10;33.10;46.70
802;DHT22;383;48.766;9.270;2023-06-26T12:54:51;33.20;46.70
802;DHT22;383;48.766;9.270;2023-06-26T12:57:17;33.20;46.60
802;DHT22;383;48.766;9.270;2023-06-26T12:59:45;33.30;47.30
802;DHT22;383;48.766;9.270;2023-06-26T13:02:12;33.40;45.80
802;DHT22;383;48.766;9.270;2023-06-26T13:04:39;33.40;45.20
802;DHT22;383;48.766;9.270;2023-06-26T13:07:06;33.30;45.50
802;DHT22;383;48.766;9.270;2023-06-26T13:09:33;33.30;45.50
802;DHT22;383;48.766;9.270;2023-06-26T13:12:00;33.40;45.80
802;DHT22;383;48.766;9.270;2023-06-26T13:14:29;33.40;45.70
802;DHT22;383;48.766;9.270;2023-06-26T13:16:57;33.50;45.10
802;DHT22;383;48.766;9.270;2023-06-26T13:19:23;33.60;44.30
802;DHT22;383;48.766;9.270;2023-06-26T13:21:50;33.50;44.60
802;DHT22;383;48.766;9.270;2023-06-26T13:24:17;33.30;45.20
802;DHT22;383;48.766;9.270;2023-06-26T13:26:43;33.10;45.20
802;DHT22;383;48.766;9.270;2023-06-26T13:29:10;33.10;45.30
802;DHT22;383;48.766;9.270;2023-06-26T13:31:37;32.70;45.60
802;DHT22;383;48.766;9.270;2023-06-26T13:34:05;32.40;46.10
802;DHT22;383;48.766;9.270;2023-06-26T13:36:32;32.20;46.20
802;DHT22;383;48.766;9.270;2023-06-26T13:39:00;32.40;46.20
802;DHT22;383;48.766;9.270;2023-06-26T13:41:28;32.60;45.90
802;DHT22;383;48.766;9.270;2023-06-26T13:43:55;32.60;45.50
802;DHT22;383;48.766;9.270;2023-06-26T13:46:22;32.50;44.80
802;DHT22;383;48.766;9.270;2023-06-26T13:48:48;32.50;45.00
802;DHT22;383;48.766;9.270;2023-06-26T13:51:16;32.80;44.30
802;DHT22;383;48.766;9.270;2023-06-26T13:53:43;32.90;43.80
802;DHT22;383;48.766;9.270;2023-06-26T13:56:10;32.90;44.00
802;DHT22;383;48.766;9.270;2023-06-26T13:58:36;33.00;44.00
802;DHT22;383;48.766;9.270;2023-06-26T14:01:04;33.10;42.70
802;DHT22;383;48.766;9.270;2023-06-26T14:03:31;33.00;42.70
802;DHT22;383;48.766;9.270;2023-06-26T14:05:58;33.30;41.90
802;DHT22;383;48.766;9.270;2023-06-26T14:08:26;33.40;41.60
802;DHT22;383;48.766;9.270;2023-06-26T14:10:52;33.50;40.70
802;DHT22;383;48.766;9.270;2023-06-26T14:13:19;33.10;40.50
802;DHT22;383;48.766;9.270;2023-06-26T14:15:49;33.00;40.60
802;DHT22;383;48.766;9.270;2023-06-26T14:18:18;33.00;40.90
802;DHT22;383;48.766;9.270;2023-06-26T14:20:44;33.00;40.90
802;DHT22;383;48.766;9.270;2023-06-26T14:23:11;33.30;40.10
802;DHT22;383;48.766;9.270;2023-06-26T14:25:39;33.50;39.60
802;DHT22;383;48.766;9.270;2023-06-26T14:28:06;33.50;39.50
802;DHT22;383;48.766;9.270;2023-06-26T14:30:32;33.40;39.50
802;DHT22;383;48.766;9.270;2023-06-26T14:32:59;33.50;39.50
802;DHT22;383;48.766;9.270;2023-06-26T14:35:26;33.60;39.50
802;DHT22;383;48.766;9.270;2023-06-26T14:37:52;33.30;39.00
802;DHT22;383;48.766;9.270;2023-06-26T14:40:19;33.00;39.60
802;DHT22;383;48.766;9.270;2023-06-26T14:42:47;33.00;39.70
802;DHT22;383;48.766;9.270;2023-06-26T14:45:14;33.10;39.70
802;DHT22;383;48.766;9.270;2023-06-26T14:47:40;33.10;39.60
802;DHT22;383;48.766;9.270;2023-06-26T14:50:08;33.30;39.10
802;DHT22;383;48.766;9.270;2023-06-26T14:52:35;33.10;39.90
802;DHT22;383;48.766;9.270;2023-06-26T14:55:02;32.60;40.10
802;DHT22;383;48.766;9.270;2023-06-26T14:57:29;32.60;40.00
802;DHT22;383;48.766;9.270;2023-06-26T14:59:57;32.70;40.00
802;DHT22;383;48.766;9.270;2023-06-26T15:02:24;32.50;40.40
802;DHT22;383;48.766;9.270;2023-06-26T15:04:50;32.50;40.90
802;DHT22;383;48.766;9.270;2023-06-26T15:09:46;32.70;40.70
802;DHT22;383;48.766;9.270;2023-06-26T15:12:13;32.50;41.50
802;DHT22;383;48.766;9.270;2023-06-26T15:14:41;32.60;41.50
802;DHT22;383;48.766;9.270;2023-06-26T15:17:09;32.60;41.40
802;DHT22;383;48.766;9.270;2023-06-26T15:19:37;32.70;42.20
802;DHT22;383;48.766;9.270;2023-06-26T15:22:04;32.70;41.10
802;DHT22;383;48.766;9.270;2023-06-26T15:24:31;32.70;41.70
802;DHT22;383;48.766;9.270;2023-06-26T15:26:58;32.70;41.20
802;DHT22;383;48.766;9.270;2023-06-26T15:29:24;33.00;41.10
802;DHT22;383;48.766;9.270;2023-06-26T15:31:52;32.90;41.00
802;DHT22;383;48.766;9.270;2023-06-26T15:34:20;32.90;40.90
802;DHT22;383;48.766;9.270;2023-06-26T15:36:47;32.70;41.10
802;DHT22;383;48.766;9.270;2023-06-26T15:39:15;32.80;41.00
802;DHT22;383;48.766;9.270;2023-06-26T15:41:42;32.50;41.70
802;DHT22;383;48.766;9.270;2023-06-26T15:44:09;32.20;41.10
802;DHT22;383;48.766;9.270;2023-06-26T15:46:36;31.80;42.70
802;DHT22;383;48.766;9.270;2023-06-26T15:49:03;31.80;42.60
802;DHT22;383;48.766;9.270;2023-06-26T15:51:30;32.00;42.40
802;DHT22;383;48.766;9.270;2023-06-26T15:53:59;32.20;41.50
802;DHT22;383;48.766;9.270;2023-06-26T15:56:26;32.20;41.20
802;DHT22;383;48.766;9.270;2023-06-26T15:58:52;32.30;40.90
802;DHT22;383;48.766;9.270;2023-06-26T16:01:20;32.00;40.90
802;DHT22;383;48.766;9.270;2023-06-26T16:03:47;31.70;41.40
802;DHT22;383;48.766;9.270;2023-06-26T16:06:14;31.00;42.70
802;DHT22;383;48.766;9.270;2023-06-26T16:08:42;31.00;42.80
802;DHT22;383;48.766;9.270;2023-06-26T16:11:12;30.80;43.50
802;DHT22;383;48.766;9.270;2023-06-26T16:13:39;30.90;43.60
802;DHT22;383;48.766;9.270;2023-06-26T16:16:06;30.80;43.50
802;DHT22;383;48.766;9.270;2023-06-26T16:18:33;31.00;43.50
802;DHT22;383;48.766;9.270;2023-06-26T16:21:00;30.90;43.50
802;DHT22;383;48.766;9.270;2023-06-26T16:23:27;30.90;43.50
802;DHT22;383;48.766;9.270;2023-06-26T16:25:55;30.90;43.50
802;DHT22;383;48.766;9.270;2023-06-26T16:28:22;30.50;44.30
802;DHT22;383;48.766;9.270;2023-06-26T16:33:15;30.20;44.50
802;DHT22;383;48.766;9.270;2023-06-26T16:35:42;30.30;44.30
802;DHT22;383;48.766;9.270;2023-06-26T16:38:09;30.40;44.00
802;DHT22;383;48.766;9.270;2023-06-26T16:40:36;30.40;44.20
802;DHT22;383;48.766;9.270;2023-06-26T16:43:04;30.30;44.00
802;DHT22;383;48.766;9.270;2023-06-26T16:45:31;30.30;44.10
802;DHT22;383;48.766;9.270;2023-06-26T16:47:58;30.30;43.00
802;DHT22;383;48.766;9.270;2023-06-26T16:50:24;30.00;43.70
802;DHT22;383;48.766;9.270;2023-06-26T16:52:51;29.90;43.60
802;DHT22;383;48.766;9.270;2023-06-26T16:55:32;30.00;43.20
802;DHT22;383;48.766;9.270;2023-06-26T16:57:59;30.10;42.50
802;DHT22;383;48.766;9.270;2023-06-26T17:00:27;29.80;43.30
802;DHT22;383;48.766;9.270;2023-06-26T17:02:54;29.70;41.00
802;DHT22;383;48.766;9.270;2023-06-26T17:07:47;29.80;40.90
802;DHT22;383;48.766;9.270;2023-06-26T17:10:14;29.70;39.50
802;DHT22;383;48.766;9.270;2023-06-26T17:12:41;29.50;39.60
802;DHT22;383;48.766;9.270;2023-06-26T17:15:08;29.20;40.20
802;DHT22;383;48.766;9.270;2023-06-26T17:17:37;29.20;40.00
802;DHT22;383;48.766;9.270;2023-06-26T17:20:04;29.10;39.40
802;DHT22;383;48.766;9.270;2023-06-26T17:22:34;28.90;38.60
802;DHT22;383;48.766;9.270;2023-06-26T17:25:00;28.60;38.80
802;DHT22;383;48.766;9.270;2023-06-26T17:27:30;28.40;38.80